Schriever AFB, Colorado
Current Conditions -  °F | °C
As of 3:54 AM on Saturday 22 Nov 2014 (Local Time) from KCOS Reporting Station
Clear Clear  
Wind Chill: 19°   Ceiling: Unl
Heat Index: 26°   Visibility: 10mi
Dew Point: 17°   Wind: 6mph
Humidity: 69%   Direction: 60°ENE
Pressure: 29.94"   Gusts: NA
Location:  38.8334°N, 104.82°W
Report Text: KCOS 221054Z 06005KT 10SM CLR M03/M08 A2994 RMK AO2 SLP142 T10331083
Loading
Personal Weather Stations






























Interactive Weather Map New forecast layout! Learn more

10-Day Weather Forecast

Advertisements
Track Severe Weather on mobile